Time;durP1;ratioP1;P1;durP2;ratioP2;P2;SDS_P1;SDS_P2;PMS_P1;PMS_P2;Temp;Humidity;BMP_temperature;BMP_pressure;BME280_temperature;BME280_humidity;BME280_pressure;Samples;Min_cycle;Max_cycle;Signal;HPM_P1;HPM_P2
2021/08/16 00:00:18;;;;;;;32.97;18.42;;;22.20;61.90;;;;;;5056226;28;20040;-32
2021/08/16 00:02:45;;;;;;;25.50;17.80;;;22.20;62.00;;;;;;5055967;28;20021;-37
2021/08/16 00:05:11;;;;;;;26.92;17.08;;;22.20;62.10;;;;;;5056216;28;20040;-32
2021/08/16 00:07:38;;;;;;;28.42;18.13;;;22.20;62.10;;;;;;5055872;28;20036;-36
2021/08/16 00:10:04;;;;;;;29.20;17.10;;;22.20;62.10;;;;;;5056173;28;20075;-37
2021/08/16 00:12:31;;;;;;;24.70;17.30;;;22.10;62.20;;;;;;5056044;28;20036;-33
2021/08/16 00:14:57;;;;;;;29.55;17.40;;;22.10;62.20;;;;;;5055952;28;20118;-32
2021/08/16 00:17:23;;;;;;;24.88;16.80;;;22.10;62.30;;;;;;5055649;28;20421;-37
2021/08/16 00:19:48;;;;;;;31.35;16.98;;;22.10;62.40;;;;;;5056104;28;20087;-33
2021/08/16 00:22:14;;;;;;;26.80;16.55;;;22.00;62.40;;;;;;5055565;28;20095;-38
2021/08/16 00:24:40;;;;;;;26.05;15.88;;;22.00;62.40;;;;;;5055924;28;20029;-37
2021/08/16 00:27:06;;;;;;;21.17;16.00;;;22.00;62.60;;;;;;5055475;28;20031;-34
2021/08/16 00:29:31;;;;;;;27.80;16.63;;;22.00;62.70;;;;;;5055686;28;20021;-37
2021/08/16 00:31:57;;;;;;;26.00;16.20;;;21.90;62.70;;;;;;5055602;28;20041;-32
2021/08/16 00:34:23;;;;;;;23.02;16.08;;;22.00;62.90;;;;;;5056695;28;20032;-37
2021/08/16 00:36:48;;;;;;;25.33;16.25;;;21.90;62.80;;;;;;5059684;28;20060;-33
2021/08/16 00:39:14;;;;;;;26.50;16.83;;;21.90;62.80;;;;;;5059721;28;20032;-37
2021/08/16 00:41:40;;;;;;;24.83;15.75;;;21.90;62.90;;;;;;5059885;28;20090;-32
2021/08/16 00:44:09;;;;;;;22.45;16.48;;;21.90;62.90;;;;;;5059935;28;20111;-33
2021/08/16 00:46:36;;;;;;;26.70;17.48;;;21.90;62.90;;;;;;5059729;28;20048;-32
2021/08/16 00:49:02;;;;;;;25.98;17.15;;;21.90;63.00;;;;;;5059196;28;20108;-33
2021/08/16 00:51:30;;;;;;;23.20;17.38;;;21.90;63.00;;;;;;5059666;28;20083;-32
2021/08/16 00:53:56;;;;;;;27.20;17.17;;;21.90;63.60;;;;;;5059423;28;20025;-37
2021/08/16 00:56:26;;;;;;;23.67;16.00;;;21.90;63.00;;;;;;5059841;28;20033;-36
2021/08/16 00:58:58;;;;;;;;;;;21.80;63.00;;;;;;5060084;28;20040;-33
2021/08/16 01:01:24;;;;;;;22.42;16.95;;;21.80;62.70;;;;;;5059775;28;19909;-32
2021/08/16 01:03:50;;;;;;;27.40;16.80;;;21.70;63.20;;;;;;5059134;28;20040;-33
2021/08/16 01:06:15;;;;;;;27.08;18.98;;;21.70;63.30;;;;;;5059505;28;20029;-37
2021/08/16 01:08:41;;;;;;;25.08;15.95;;;21.70;63.50;;;;;;5059322;28;20025;-32
2021/08/16 01:11:07;;;;;;;23.35;16.65;;;21.70;63.50;;;;;;5059692;28;20036;-33
2021/08/16 01:13:32;;;;;;;26.92;17.15;;;21.70;63.60;;;;;;5059029;28;20031;-37
2021/08/16 01:16:03;;;;;;;26.10;17.95;;;21.70;63.70;;;;;;5059097;28;20267;-32
2021/08/16 01:18:32;;;;;;;22.02;16.55;;;21.70;63.80;;;;;;5058737;28;20029;-33
2021/08/16 01:21:02;;;;;;;26.92;16.50;;;21.70;63.80;;;;;;5059558;28;20075;-34
2021/08/16 01:23:28;;;;;;;23.58;16.85;;;21.60;63.90;;;;;;5058784;28;20048;-37
2021/08/16 01:25:54;;;;;;;23.92;16.67;;;21.60;63.90;;;;;;5058568;28;20036;-37
2021/08/16 01:28:21;;;;;;;28.45;18.48;;;21.60;64.00;;;;;;5058590;28;20029;-34
2021/08/16 01:30:50;;;;;;;30.90;19.27;;;21.50;64.10;;;;;;5059368;28;20025;-37
2021/08/16 01:33:16;;;;;;;26.48;19.17;;;21.50;64.30;;;;;;5058863;28;20029;-32
2021/08/16 01:35:42;;;;;;;26.77;18.85;;;21.50;64.30;;;;;;5059076;28;20415;-37
2021/08/16 01:38:08;;;;;;;31.38;19.67;;;21.50;64.40;;;;;;5058921;28;20048;-36
2021/08/16 01:40:33;;;;;;;27.33;20.65;;;21.50;64.60;;;;;;5058784;28;20335;-37
2021/08/16 01:42:59;;;;;;;22.75;16.95;;;21.40;64.70;;;;;;5058513;28;20037;-33
2021/08/16 01:45:25;;;;;;;27.23;17.48;;;21.40;64.60;;;;;;5058596;28;20025;-37
2021/08/16 01:47:50;;;;;;;31.88;18.20;;;21.40;64.60;;;;;;5057691;28;20033;-32
2021/08/16 01:50:16;;;;;;;26.23;18.17;;;21.40;64.80;;;;;;5058615;28;20147;-37
2021/08/16 01:52:42;;;;;;;25.77;17.02;;;21.40;64.90;;;;;;5058538;28;20090;-37
2021/08/16 01:55:09;;;;;;;27.20;18.27;;;21.40;65.20;;;;;;5058485;28;20397;-33
2021/08/16 01:57:35;;;;;;;29.00;19.17;;;21.30;65.20;;;;;;5058230;28;20041;-32
2021/08/16 02:00:01;;;;;;;29.92;18.55;;;21.30;65.20;;;;;;5058462;28;20373;-37
2021/08/16 02:02:26;;;;;;;26.85;17.92;;;21.30;65.20;;;;;;5057984;28;20029;-37
2021/08/16 02:04:53;;;;;;;28.00;20.25;;;21.30;65.20;;;;;;5058464;28;20025;-37
2021/08/16 02:07:18;;;;;;;28.88;18.77;;;21.30;65.30;;;;;;5058052;28;20127;-36
2021/08/16 02:09:44;;;;;;;30.05;20.55;;;21.30;65.30;;;;;;5058456;28;20053;-37
2021/08/16 02:12:10;;;;;;;27.50;19.38;;;21.30;65.30;;;;;;5058229;28;20405;-37
2021/08/16 02:14:35;;;;;;;25.77;19.67;;;21.20;65.30;;;;;;5058103;28;20021;-32
2021/08/16 02:17:01;;;;;;;29.98;19.33;;;21.20;65.40;;;;;;5057736;28;20049;-33
2021/08/16 02:19:27;;;;;;;28.88;18.23;;;21.20;65.40;;;;;;5057947;28;20066;-33
2021/08/16 02:21:52;;;;;;;29.60;22.55;;;21.20;65.50;;;;;;5057795;28;20068;-37
2021/08/16 02:24:18;;;;;;;30.58;21.85;;;21.20;65.60;;;;;;5057804;28;20056;-37
2021/08/16 02:26:44;;;;;;;27.77;18.58;;;21.20;65.70;;;;;;5057451;28;20428;-32
2021/08/16 02:29:12;;;;;;;29.20;19.65;;;21.10;65.70;;;;;;5057856;28;20103;-37
2021/08/16 02:31:38;;;;;;;32.67;19.20;;;21.10;65.80;;;;;;5057741;28;20037;-32
2021/08/16 02:34:03;;;;;;;30.13;20.85;;;21.00;65.90;;;;;;5057558;28;20036;-37
2021/08/16 02:36:29;;;;;;;32.08;19.45;;;21.00;66.00;;;;;;5057488;28;20040;-32
2021/08/16 02:38:55;;;;;;;32.90;21.15;;;21.00;66.00;;;;;;5057344;28;20112;-33
2021/08/16 02:41:20;;;;;;;28.30;19.85;;;20.90;66.20;;;;;;5057975;28;20156;-33
2021/08/16 02:43:46;;;;;;;28.33;19.30;;;20.90;66.20;;;;;;5057578;28;20048;-33
2021/08/16 02:46:12;;;;;;;26.27;19.48;;;20.80;66.20;;;;;;5057679;28;20079;-36
2021/08/16 02:48:38;;;;;;;33.28;21.05;;;20.90;66.40;;;;;;5057219;28;20108;-32
2021/08/16 02:51:03;;;;;;;41.22;21.23;;;20.80;66.40;;;;;;5057647;28;20108;-37
2021/08/16 02:53:29;;;;;;;29.63;19.08;;;20.80;66.60;;;;;;5057194;28;20033;-37
2021/08/16 02:55:55;;;;;;;26.75;18.45;;;20.80;66.50;;;;;;5057447;28;20065;-37
2021/08/16 02:58:21;;;;;;;27.55;19.17;;;20.80;66.60;;;;;;5056090;28;20035;-32
2021/08/16 03:00:47;;;;;;;27.77;19.48;;;20.70;66.70;;;;;;5057637;28;20294;-33
2021/08/16 03:03:12;;;;;;;32.55;20.65;;;20.70;66.80;;;;;;5056955;28;20443;-33
2021/08/16 03:05:38;;;;;;;30.83;20.23;;;20.70;67.00;;;;;;5057134;28;20025;-43
2021/08/16 03:08:04;;;;;;;29.73;20.73;;;20.70;67.00;;;;;;5057056;28;20029;-34
2021/08/16 03:10:29;;;;;;;33.33;20.88;;;20.70;67.00;;;;;;5057243;28;20267;-33
2021/08/16 03:12:55;;;;;;;29.45;20.63;;;20.70;67.20;;;;;;5056782;28;20025;-44
2021/08/16 03:15:21;;;;;;;35.28;21.52;;;20.70;67.20;;;;;;5056754;28;20045;-43
2021/08/16 03:17:47;;;;;;;29.73;21.95;;;20.70;67.30;;;;;;5056547;28;20086;-43
2021/08/16 03:20:13;;;;;;;32.30;21.42;;;20.70;67.30;;;;;;5057008;28;20029;-43
2021/08/16 03:22:39;;;;;;;37.13;25.05;;;20.70;67.40;;;;;;5056547;28;20036;-36
2021/08/16 03:25:05;;;;;;;35.80;21.88;;;20.70;67.50;;;;;;5056703;28;20405;-34
2021/08/16 03:27:31;;;;;;;33.95;22.23;;;20.70;67.50;;;;;;5056339;28;20143;-44
2021/08/16 03:29:56;;;;;;;30.95;24.20;;;20.70;67.70;;;;;;5056870;28;20075;-44
2021/08/16 03:32:22;;;;;;;34.58;23.17;;;20.70;67.80;;;;;;5056274;28;20056;-44
2021/08/16 03:34:47;;;;;;;35.38;22.27;;;20.70;67.90;;;;;;5056556;28;20020;-44
2021/08/16 03:37:14;;;;;;;35.08;22.10;;;20.70;67.90;;;;;;5056407;28;20056;-44
2021/08/16 03:39:39;;;;;;;32.92;22.38;;;20.70;68.00;;;;;;5056666;28;20033;-44
2021/08/16 03:42:05;;;;;;;36.50;22.73;;;20.80;68.10;;;;;;5056379;28;20052;-43
2021/08/16 03:44:31;;;;;;;34.17;23.13;;;20.80;68.10;;;;;;5056635;28;20417;-33
2021/08/16 03:46:57;;;;;;;34.17;24.15;;;20.90;68.10;;;;;;5055744;28;20329;-44
2021/08/16 03:49:22;;;;;;;29.40;22.00;;;20.90;68.00;;;;;;5056347;28;20031;-44
2021/08/16 03:51:48;;;;;;;32.88;22.50;;;21.00;67.80;;;;;;5056062;28;20025;-36
2021/08/16 03:54:14;;;;;;;38.00;26.80;;;21.10;67.80;;;;;;5056305;28;20079;-44
2021/08/16 03:56:39;;;;;;;32.60;23.15;;;21.10;67.70;;;;;;5056248;28;20367;-34
2021/08/16 03:59:05;;;;;;;35.42;22.45;;;21.20;67.60;;;;;;5056281;28;20415;-44
2021/08/16 04:01:31;;;;;;;31.98;19.92;;;21.30;67.60;;;;;;5056046;28;20045;-43
2021/08/16 04:04:00;;;;;;;36.67;21.83;;;21.30;67.40;;;;;;5055719;28;20033;-44
2021/08/16 04:06:26;;;;;;;39.58;24.10;;;21.40;67.40;;;;;;5055515;28;20048;-44
2021/08/16 04:08:51;;;;;;;31.60;22.63;;;21.40;67.30;;;;;;5055697;28;20029;-33
2021/08/16 04:11:17;;;;;;;32.40;20.80;;;21.50;67.30;;;;;;5056130;28;20056;-35
2021/08/16 04:13:43;;;;;;;43.15;23.73;;;21.60;67.20;;;;;;5055760;28;20074;-34
2021/08/16 04:16:08;;;;;;;53.92;24.80;;;21.60;66.90;;;;;;5055575;28;20053;-44
2021/08/16 04:18:34;;;;;;;43.40;28.88;;;21.70;66.40;;;;;;5055764;28;20033;-34
2021/08/16 04:21:00;;;;;;;38.90;23.10;;;21.80;66.00;;;;;;5056147;28;20107;-44
2021/08/16 04:23:25;;;;;;;34.03;25.17;;;21.80;65.80;;;;;;5055337;28;20033;-35
2021/08/16 04:25:51;;;;;;;36.05;21.95;;;21.90;65.50;;;;;;5056015;28;20075;-34
2021/08/16 04:28:17;;;;;;;33.90;20.10;;;22.00;65.20;;;;;;5055611;28;20033;-36
2021/08/16 04:30:43;;;;;;;28.70;17.73;;;22.00;65.00;;;;;;5055865;28;20104;-37
2021/08/16 04:33:08;;;;;;;29.98;20.27;;;22.00;64.80;;;;;;5055594;28;20025;-37
2021/08/16 04:35:34;;;;;;;29.58;18.02;;;22.10;64.90;;;;;;5055371;28;20162;-37
2021/08/16 04:38:00;;;;;;;28.70;19.00;;;22.20;64.90;;;;;;5055231;28;20032;-38
2021/08/16 04:40:25;;;;;;;35.28;21.20;;;22.30;64.90;;;;;;5055628;28;20061;-46
2021/08/16 04:42:51;;;;;;;39.80;27.85;;;22.40;64.80;;;;;;5055137;28;20029;-47
2021/08/16 04:45:17;;;;;;;28.00;20.17;;;22.50;64.60;;;;;;5055298;28;20032;-36
2021/08/16 04:47:44;;;;;;;25.92;16.73;;;22.50;64.40;;;;;;5055313;28;20037;-46
2021/08/16 04:50:12;;;;;;;29.65;19.42;;;22.60;64.10;;;;;;5055504;28;20055;-34
2021/08/16 04:52:38;;;;;;;28.80;19.10;;;22.70;64.00;;;;;;5055177;28;20056;-33
2021/08/16 04:55:04;;;;;;;26.52;17.52;;;22.70;63.80;;;;;;5055158;28;20126;-44
2021/08/16 04:57:35;;;;;;;29.85;19.80;;;22.90;63.70;;;;;;5055180;28;20044;-44
2021/08/16 05:00:05;;;;;;;32.63;18.27;;;23.00;63.60;;;;;;5055193;28;20029;-37
2021/08/16 05:02:31;;;;;;;;;;;23.00;63.50;;;;;;5055659;28;20365;-34
2021/08/16 05:05:07;;;;;;;28.77;18.67;;;23.10;63.50;;;;;;5055294;28;19908;-35
2021/08/16 05:07:33;;;;;;;34.28;20.10;;;23.20;63.30;;;;;;5054816;28;20090;-34
2021/08/16 05:09:58;;;;;;;24.85;17.17;;;23.30;62.90;;;;;;5055113;28;20313;-35
2021/08/16 05:12:24;;;;;;;24.60;17.20;;;23.50;62.40;;;;;;5051432;28;20040;-43
2021/08/16 05:14:49;;;;;;;30.83;19.50;;;23.50;61.70;;;;;;5054588;28;20025;-34
2021/08/16 05:17:15;;;;;;;22.48;15.70;;;23.60;61.20;;;;;;5054378;28;20033;-43
2021/08/16 05:19:41;;;;;;;24.63;17.10;;;23.60;61.20;;;;;;5054961;28;20033;-33
2021/08/16 05:22:07;;;;;;;22.95;16.08;;;23.80;61.00;;;;;;5056600;28;20120;-37
2021/08/16 05:24:33;;;;;;;24.08;16.75;;;23.80;60.90;;;;;;5058875;28;20488;-37
2021/08/16 05:27:00;;;;;;;26.42;15.63;;;23.90;60.90;;;;;;5058003;28;20128;-37
2021/08/16 05:29:25;;;;;;;27.23;16.55;;;24.10;60.90;;;;;;5058173;28;20029;-32
2021/08/16 05:31:51;;;;;;;32.53;18.40;;;24.10;60.70;;;;;;5058019;28;20041;-35
2021/08/16 05:34:16;;;;;;;34.20;18.15;;;24.30;60.70;;;;;;5057986;28;20020;-46
2021/08/16 05:36:42;;;;;;;25.83;16.25;;;24.30;60.50;;;;;;5057393;28;20036;-46
2021/08/16 05:39:08;;;;;;;31.55;17.33;;;24.40;60.40;;;;;;5058134;28;20025;-46
2021/08/16 05:41:33;;;;;;;27.80;18.23;;;24.50;60.20;;;;;;5057841;28;20445;-44
2021/08/16 05:43:59;;;;;;;28.05;16.40;;;24.60;60.10;;;;;;5057603;28;20452;-45
2021/08/16 05:46:25;;;;;;;22.30;15.43;;;24.70;59.70;;;;;;5058107;28;20033;-41
2021/08/16 05:48:50;;;;;;;24.38;15.00;;;24.80;59.60;;;;;;5057629;28;20029;-45
2021/08/16 05:51:16;;;;;;;25.73;16.27;;;24.80;59.40;;;;;;5058286;28;20190;-44
2021/08/16 05:53:41;;;;;;;21.00;14.52;;;24.90;58.90;;;;;;5057784;28;20017;-45
2021/08/16 05:56:08;;;;;;;21.83;14.52;;;25.00;58.60;;;;;;5058199;28;20357;-45
2021/08/16 05:58:33;;;;;;;19.15;14.07;;;25.00;58.50;;;;;;5057562;28;20307;-42
2021/08/16 06:00:59;;;;;;;25.70;15.65;;;25.20;58.30;;;;;;5057621;28;20059;-43
2021/08/16 06:03:25;;;;;;;27.80;16.25;;;25.20;58.30;;;;;;5057701;28;20029;-44
2021/08/16 06:05:50;;;;;;;25.88;15.48;;;25.30;58.60;;;;;;5057976;28;20413;-44
2021/08/16 06:08:16;;;;;;;24.20;16.08;;;25.40;58.50;;;;;;5057442;28;20025;-46
2021/08/16 06:10:41;;;;;;;24.48;14.35;;;25.40;58.00;;;;;;5056336;28;20063;-40
2021/08/16 06:13:07;;;;;;;23.98;15.70;;;25.50;57.50;;;;;;5057562;28;20037;-41
2021/08/16 06:15:33;;;;;;;22.05;15.50;;;25.60;57.50;;;;;;5057544;28;20044;-45
2021/08/16 06:17:58;;;;;;;19.48;11.18;;;25.70;57.10;;;;;;5057247;28;20321;-42
2021/08/16 06:20:24;;;;;;;23.90;14.15;;;25.70;56.60;;;;;;5057658;28;20017;-46
2021/08/16 06:22:50;;;;;;;16.02;11.82;;;25.80;56.60;;;;;;5057034;28;20126;-40
2021/08/16 06:25:16;;;;;;;18.27;12.35;;;25.90;56.40;;;;;;5057456;28;20024;-41
2021/08/16 06:27:42;;;;;;;26.33;12.85;;;26.00;56.20;;;;;;5056591;28;20449;-40
2021/08/16 06:30:08;;;;;;;22.05;12.15;;;26.10;55.70;;;;;;5057307;28;20041;-46
2021/08/16 06:32:35;;;;;;;21.88;14.02;;;26.20;55.90;;;;;;5056785;28;20025;-46
2021/08/16 06:35:01;;;;;;;23.38;15.45;;;26.20;57.50;;;;;;5057521;28;20049;-46
2021/08/16 06:37:27;;;;;;;29.42;16.98;;;26.30;58.40;;;;;;5056960;28;20071;-46
2021/08/16 06:39:53;;;;;;;24.33;15.50;;;26.40;59.50;;;;;;5057219;28;20040;-46
2021/08/16 06:42:20;;;;;;;31.17;17.58;;;26.40;59.20;;;;;;5057129;28;20037;-46
2021/08/16 06:44:45;;;;;;;25.73;16.48;;;26.50;59.20;;;;;;5057115;28;20029;-40
2021/08/16 06:47:12;;;;;;;26.88;18.30;;;26.60;59.00;;;;;;5056421;28;20044;-46
2021/08/16 06:49:37;;;;;;;28.77;18.70;;;26.60;59.70;;;;;;5056876;28;20029;-46
2021/08/16 06:52:03;;;;;;;28.92;18.33;;;26.70;60.30;;;;;;5056734;28;20025;-41
2021/08/16 06:54:29;;;;;;;31.13;18.92;;;26.70;60.40;;;;;;5056757;28;20449;-48
2021/08/16 06:56:55;;;;;;;30.45;20.65;;;26.80;59.80;;;;;;5056640;28;20112;-43
2021/08/16 06:59:20;;;;;;;31.80;19.67;;;26.80;59.50;;;;;;5056728;28;20037;-48
2021/08/16 07:01:46;;;;;;;33.38;22.63;;;26.80;59.00;;;;;;5050219;28;20393;-48
2021/08/16 07:04:12;;;;;;;33.97;21.80;;;26.80;59.50;;;;;;5055968;28;20071;-47
2021/08/16 07:06:38;;;;;;;33.85;21.67;;;26.90;59.10;;;;;;5055283;28;20037;-48
2021/08/16 07:09:03;;;;;;;35.60;22.70;;;26.90;59.20;;;;;;5056219;28;20131;-43
2021/08/16 07:11:29;;;;;;;35.42;25.45;;;27.00;59.00;;;;;;5056252;28;20174;-49
2021/08/16 07:13:55;;;;;;;40.95;25.10;;;27.00;59.60;;;;;;5056762;28;20409;-48
2021/08/16 07:16:21;;;;;;;32.75;23.98;;;27.00;59.30;;;;;;5055468;28;20048;-47
2021/08/16 07:18:47;;;;;;;37.15;25.77;;;27.00;59.00;;;;;;5055908;28;20037;-48
2021/08/16 07:21:13;;;;;;;43.30;24.67;;;27.10;58.70;;;;;;5055982;28;20033;-41
2021/08/16 07:23:38;;;;;;;40.67;26.08;;;27.10;58.90;;;;;;5056274;28;20057;-47
2021/08/16 07:26:06;;;;;;;36.17;25.55;;;27.10;58.70;;;;;;5055866;28;20078;-42
2021/08/16 07:28:32;;;;;;;37.90;27.25;;;27.20;58.30;;;;;;5055744;28;20033;-47
2021/08/16 07:31:00;;;;;;;71.82;40.13;;;27.20;58.40;;;;;;5056181;28;20037;-44
2021/08/16 07:33:26;;;;;;;43.15;27.80;;;27.20;59.00;;;;;;5055887;28;20387;-42
2021/08/16 07:35:52;;;;;;;36.13;24.70;;;27.30;58.30;;;;;;5055835;28;20036;-42
2021/08/16 07:38:18;;;;;;;40.17;28.02;;;27.30;58.40;;;;;;5055705;28;20041;-47
2021/08/16 07:40:44;;;;;;;43.70;27.70;;;27.30;58.30;;;;;;5055638;28;20067;-46
2021/08/16 07:43:10;;;;;;;38.58;27.00;;;27.30;58.30;;;;;;5055777;28;20067;-43
2021/08/16 07:45:36;;;;;;;39.33;26.98;;;27.40;58.30;;;;;;5053346;28;20021;-42
2021/08/16 07:48:03;;;;;;;34.70;25.20;;;27.40;58.60;;;;;;5055461;28;20115;-43
2021/08/16 07:50:30;;;;;;;40.15;27.33;;;27.40;58.10;;;;;;5052566;28;20040;-44
2021/08/16 07:52:57;;;;;;;34.45;24.58;;;27.50;57.90;;;;;;5055401;28;20040;-45
2021/08/16 07:55:23;;;;;;;52.28;25.40;;;27.50;57.60;;;;;;5055612;28;20025;-47
2021/08/16 07:57:49;;;;;;;35.13;24.38;;;27.50;57.40;;;;;;5055493;28;20105;-44
2021/08/16 08:00:15;;;;;;;31.40;23.40;;;27.50;57.00;;;;;;5055266;28;20143;-43
2021/08/16 08:02:41;;;;;;;39.92;24.20;;;27.50;56.30;;;;;;5055350;28;20032;-43
2021/08/16 08:05:09;;;;;;;30.15;19.52;;;27.60;56.30;;;;;;5055326;28;20103;-43
2021/08/16 08:07:34;;;;;;;26.80;17.63;;;27.60;55.40;;;;;;5055179;28;20319;-43
2021/08/16 08:10:00;;;;;;;19.95;14.45;;;27.60;54.10;;;;;;5055359;28;20051;-47
2021/08/16 08:12:26;;;;;;;23.65;16.98;;;27.70;52.60;;;;;;5055351;28;20477;-46
2021/08/16 08:14:51;;;;;;;18.42;14.77;;;27.70;53.30;;;;;;5055229;28;20409;-47
2021/08/16 08:17:17;;;;;;;18.60;14.55;;;27.80;54.20;;;;;;5055202;28;20033;-43
2021/08/16 08:19:43;;;;;;;19.58;14.02;;;27.80;54.40;;;;;;5055243;28;20029;-46
2021/08/16 08:22:08;;;;;;;26.45;15.65;;;27.90;54.40;;;;;;5054844;28;20037;-44
2021/08/16 08:24:34;;;;;;;19.52;14.63;;;28.00;54.70;;;;;;5054787;28;20113;-43
2021/08/16 08:27:00;;;;;;;24.80;15.77;;;28.00;55.10;;;;;;5054388;28;20090;-44
2021/08/16 08:29:25;;;;;;;26.25;17.90;;;28.00;55.10;;;;;;5055152;28;20083;-39
2021/08/16 08:31:51;;;;;;;24.55;14.10;;;28.00;55.90;;;;;;5054799;28;20063;-40
2021/08/16 08:34:17;;;;;;;23.58;16.20;;;28.10;55.90;;;;;;5054788;28;20571;-33
2021/08/16 08:36:44;;;;;;;18.92;12.88;;;28.10;55.80;;;;;;5054928;28;20033;-34
2021/08/16 08:39:10;;;;;;;20.25;12.48;;;28.10;55.70;;;;;;5054699;28;20033;-33
2021/08/16 08:41:37;;;;;;;24.90;14.55;;;28.20;55.70;;;;;;5054554;28;20025;-33
2021/08/16 08:44:10;;;;;;;15.70;11.43;;;28.20;55.20;;;;;;5054479;28;20028;-39
2021/08/16 08:46:41;;;;;;;18.10;11.18;;;28.20;54.90;;;;;;5054356;28;20049;-33
2021/08/16 08:49:08;;;;;;;20.73;12.00;;;28.30;54.80;;;;;;5054819;28;20026;-38
2021/08/16 08:51:37;;;;;;;23.52;12.68;;;28.30;53.50;;;;;;5054955;28;20340;-34
2021/08/16 08:54:06;;;;;;;18.00;12.82;;;28.30;53.70;;;;;;5054820;28;20017;-34
2021/08/16 08:56:33;;;;;;;17.50;12.03;;;28.40;54.40;;;;;;5057578;28;20041;-34
2021/08/16 08:58:59;;;;;;;16.45;9.93;;;28.40;54.40;;;;;;5058398;28;20037;-35
2021/08/16 09:01:26;;;;;;;14.45;10.95;;;28.40;54.30;;;;;;5058492;28;20047;-34
2021/08/16 09:03:54;;;;;;;14.60;9.60;;;28.50;54.50;;;;;;5058391;28;20226;-38
2021/08/16 09:06:29;;;;;;;14.27;9.27;;;28.50;53.40;;;;;;5058357;28;20124;-34
2021/08/16 09:08:56;;;;;;;18.00;10.52;;;28.60;53.70;;;;;;5058837;28;20336;-39
2021/08/16 09:11:24;;;;;;;16.77;9.85;;;28.60;53.30;;;;;;5058935;28;20090;-35
2021/08/16 09:13:49;;;;;;;16.35;9.63;;;28.70;53.30;;;;;;5058679;28;20410;-39
2021/08/16 09:16:15;;;;;;;19.63;10.00;;;28.70;53.10;;;;;;5058136;28;20143;-39
2021/08/16 09:18:41;;;;;;;21.67;10.50;;;28.70;52.50;;;;;;5057117;28;20028;-38
2021/08/16 09:21:08;;;;;;;20.80;11.05;;;28.80;51.60;;;;;;5058839;28;20040;-34
2021/08/16 09:23:47;;;;;;;16.90;9.52;;;28.90;51.60;;;;;;5058182;28;20090;-35
2021/08/16 09:26:17;;;;;;;15.18;9.77;;;29.00;51.40;;;;;;5058644;28;20402;-38
2021/08/16 09:28:42;;;;;;;13.48;10.10;;;29.10;51.70;;;;;;5058119;28;20083;-38
2021/08/16 09:31:19;;;;;;;14.60;10.45;;;29.10;51.80;;;;;;5058055;28;20025;-35
2021/08/16 09:33:56;;;;;;;14.98;9.80;;;29.20;51.90;;;;;;5058439;28;20413;-34
2021/08/16 09:36:37;;;;;;;13.23;10.25;;;29.20;52.50;;;;;;5058720;28;20037;-35
2021/08/16 09:39:22;;;;;;;12.43;8.82;;;29.30;51.90;;;;;;5058452;28;20051;-35
2021/08/16 09:41:55;;;;;;;14.63;9.25;;;29.30;52.20;;;;;;5058050;28;20372;-35
2021/08/16 09:44:20;;;;;;;15.57;9.00;;;29.30;51.80;;;;;;5058321;28;20400;-38
2021/08/16 09:46:59;;;;;;;14.00;9.07;;;29.40;51.60;;;;;;5057977;28;20065;-36
2021/08/16 09:49:24;;;;;;;14.95;8.90;;;29.50;51.70;;;;;;5058431;28;20029;-37
2021/08/16 09:52:07;;;;;;;12.52;9.35;;;29.50;51.70;;;;;;5057678;28;20031;-38
2021/08/16 09:54:35;;;;;;;15.38;9.88;;;29.60;51.10;;;;;;5058358;28;20194;-38
2021/08/16 09:57:05;;;;;;;13.40;10.10;;;29.60;51.10;;;;;;5057638;28;20041;-35
2021/08/16 09:59:33;;;;;;;13.52;9.65;;;29.70;51.80;;;;;;5057977;28;20036;-37
2021/08/16 10:01:59;;;;;;;11.48;8.93;;;29.70;51.10;;;;;;5057753;28;20036;-37
2021/08/16 10:04:25;;;;;;;9.32;8.35;;;29.70;50.90;;;;;;5058084;28;20043;-37
2021/08/16 10:06:56;;;;;;;20.73;9.35;;;29.80;50.90;;;;;;5056991;28;20325;-37
2021/08/16 10:09:22;;;;;;;13.95;8.57;;;29.80;50.90;;;;;;5057685;28;20017;-36
2021/08/16 10:11:49;;;;;;;19.15;8.70;;;29.80;50.80;;;;;;5057209;28;20032;-35
2021/08/16 10:14:18;;;;;;;14.95;9.32;;;29.80;51.10;;;;;;5057832;28;20135;-37
2021/08/16 10:16:48;;;;;;;14.23;10.65;;;29.90;50.90;;;;;;5057484;28;20044;-36
2021/08/16 10:19:18;;;;;;;12.95;9.50;;;29.90;50.50;;;;;;5054766;28;20445;-35
2021/08/16 10:21:44;;;;;;;12.70;9.15;;;29.90;50.40;;;;;;5057670;28;20037;-36
2021/08/16 10:24:25;;;;;;;10.77;8.75;;;30.00;50.50;;;;;;5057682;28;20333;-35
2021/08/16 10:27:10;;;;;;;12.40;8.43;;;30.00;49.80;;;;;;5056739;28;20099;-37
2021/08/16 10:29:38;;;;;;;21.83;11.30;;;30.10;49.20;;;;;;5057610;28;20392;-36
2021/08/16 10:32:08;;;;;;;17.63;9.32;;;30.10;48.20;;;;;;5057716;28;20078;-35
2021/08/16 10:34:39;;;;;;;12.20;7.75;;;30.20;49.00;;;;;;5057316;28;20032;-37
2021/08/16 10:37:09;;;;;;;12.15;8.20;;;30.20;49.40;;;;;;5057140;28;20079;-36
2021/08/16 10:39:43;;;;;;;14.80;9.45;;;30.30;50.20;;;;;;5057027;28;20410;-35
2021/08/16 10:42:13;;;;;;;16.45;8.48;;;30.30;50.60;;;;;;5057407;28;20041;-36
2021/08/16 10:44:38;;;;;;;13.85;8.35;;;30.40;51.10;;;;;;5057139;28;20025;-36
2021/08/16 10:47:04;;;;;;;12.43;10.95;;;30.50;51.80;;;;;;5056907;28;20029;-35
2021/08/16 10:49:34;;;;;;;12.80;7.93;;;30.50;51.10;;;;;;5056688;28;20021;-35
2021/08/16 10:52:00;;;;;;;13.82;8.73;;;30.60;51.30;;;;;;5056893;28;20044;-34
2021/08/16 10:54:28;;;;;;;12.48;8.55;;;30.60;50.20;;;;;;5057010;28;20025;-35
2021/08/16 10:56:55;;;;;;;10.65;8.93;;;30.60;50.20;;;;;;5056679;28;20040;-36
2021/08/16 10:59:26;;;;;;;16.58;9.40;;;30.70;50.20;;;;;;5056766;28;20106;-35
2021/08/16 11:01:52;;;;;;;12.15;8.15;;;30.70;50.70;;;;;;5056549;28;20036;-35
2021/08/16 11:04:30;;;;;;;11.43;8.80;;;30.80;51.30;;;;;;5051958;28;20037;-35
2021/08/16 11:07:00;;;;;;;10.38;8.98;;;30.80;51.30;;;;;;5056434;28;20445;-36
2021/08/16 11:09:28;;;;;;;12.85;9.38;;;30.80;50.50;;;;;;5055981;28;20337;-35
2021/08/16 11:12:02;;;;;;;15.57;8.18;;;30.90;51.00;;;;;;5055957;28;20090;-36
2021/08/16 11:14:29;;;;;;;16.52;9.52;;;30.90;51.00;;;;;;5056058;28;20103;-35
2021/08/16 11:16:56;;;;;;;13.90;9.05;;;31.00;50.40;;;;;;5055876;28;20053;-35
2021/08/16 11:19:23;;;;;;;13.88;9.20;;;31.00;49.90;;;;;;5054860;28;20067;-35
2021/08/16 11:22:00;;;;;;;12.55;7.68;;;31.00;49.90;;;;;;5055894;28;20115;-35
2021/08/16 11:24:35;;;;;;;11.13;8.20;;;31.10;49.80;;;;;;5055671;28;20052;-34
2021/08/16 11:27:02;;;;;;;14.77;8.77;;;31.20;49.60;;;;;;5055838;28;20036;-35
2021/08/16 11:29:28;;;;;;;11.75;7.93;;;31.30;49.30;;;;;;5055577;28;20079;-36
2021/08/16 11:32:00;;;;;;;13.13;7.47;;;31.40;49.80;;;;;;5055701;28;20028;-36
2021/08/16 11:34:46;;;;;;;13.00;9.43;;;31.50;49.80;;;;;;5055679;28;20087;-34
2021/08/16 11:37:14;;;;;;;9.73;8.68;;;31.50;50.00;;;;;;5055485;28;20032;-35
2021/08/16 11:39:39;;;;;;;12.73;9.75;;;31.60;49.10;;;;;;5055936;28;20033;-35
2021/08/16 11:42:06;;;;;;;11.57;7.53;;;31.70;47.80;;;;;;5055526;28;20482;-35
2021/08/16 11:44:33;;;;;;;12.88;8.88;;;31.80;47.40;;;;;;5055140;28;20029;-36
2021/08/16 11:47:04;;;;;;;10.65;7.55;;;31.90;46.90;;;;;;5055202;28;20439;-34
2021/08/16 11:49:35;;;;;;;9.93;7.65;;;32.00;45.90;;;;;;5055298;28;20033;-35
2021/08/16 11:52:02;;;;;;;21.48;9.40;;;32.00;46.30;;;;;;5055294;28;20421;-34
2021/08/16 11:54:30;;;;;;;16.52;9.30;;;32.10;46.40;;;;;;5055454;28;20047;-34
2021/08/16 11:57:00;;;;;;;10.15;7.57;;;32.20;46.20;;;;;;5055683;28;20033;-34
2021/08/16 11:59:27;;;;;;;12.50;8.63;;;32.40;46.50;;;;;;5055293;28;20294;-35
2021/08/16 12:01:56;;;;;;;9.35;6.78;;;32.50;46.80;;;;;;5055544;28;20032;-35
2021/08/16 12:04:23;;;;;;;9.50;6.97;;;32.60;46.80;;;;;;5054837;28;20024;-36
2021/08/16 12:06:51;;;;;;;9.55;8.40;;;32.70;46.40;;;;;;5055428;28;20041;-36
2021/08/16 12:09:18;;;;;;;10.20;8.20;;;32.90;45.80;;;;;;5055292;28;20056;-34
2021/08/16 12:11:44;;;;;;;12.55;8.00;;;33.00;45.80;;;;;;5051542;28;20329;-36
2021/08/16 12:14:10;;;;;;;7.65;6.72;;;33.10;45.40;;;;;;5051993;28;20108;-36
2021/08/16 12:16:37;;;;;;;9.63;7.03;;;33.20;45.00;;;;;;5054549;28;20072;-34
2021/08/16 12:19:05;;;;;;;9.43;7.22;;;33.30;43.90;;;;;;5038342;28;20061;-35
2021/08/16 12:21:31;;;;;;;14.23;7.97;;;33.40;44.40;;;;;;5036536;28;20312;-36
2021/08/16 12:23:58;;;;;;;12.70;8.00;;;33.40;45.10;;;;;;5034473;28;20061;-34
2021/08/16 12:26:38;;;;;;;8.88;6.90;;;33.50;45.40;;;;;;5036246;28;20037;-35
2021/08/16 12:29:19;;;;;;;9.13;6.75;;;33.70;44.50;;;;;;5034848;28;20021;-36